Time;durP1;ratioP1;P1;durP2;ratioP2;P2;SDS_P1;SDS_P2;PMS_P1;PMS_P2;Temp;Humidity;BMP_temperature;BMP_pressure;BME280_temperature;BME280_humidity;BME280_pressure;Samples;Min_cycle;Max_cycle;Signal;HPM_P1;HPM_P2
2024/01/09 00:00:05;;;;;;;5.47;2.75;;;;;;;;;;5135939;27;20453;-81
2024/01/09 00:02:31;;;;;;;2.30;1.48;;;;;;;;;;5118606;27;20133;-81
2024/01/09 00:04:57;;;;;;;4.55;2.63;;;;;;;;;;5135401;27;20051;-81
2024/01/09 00:07:23;;;;;;;3.45;2.20;;;;;;;;;;5135435;27;20050;-81
2024/01/09 00:09:49;;;;;;;4.45;2.35;;;;;;;;;;5136495;27;20043;-81
2024/01/09 00:12:15;;;;;;;3.28;2.40;;;;;;;;;;5135474;27;20068;-81
2024/01/09 00:14:41;;;;;;;3.58;2.50;;;;;;;;;;5135426;27;20047;-81
2024/01/09 00:17:07;;;;;;;4.60;2.67;;;;;;;;;;5136521;27;20090;-81
2024/01/09 00:19:34;;;;;;;4.10;1.95;;;;;;;;;;5136457;27;20393;-81
2024/01/09 00:22:02;;;;;;;5.32;2.45;;;;;;;;;;5118270;27;20459;-81
2024/01/09 00:24:28;;;;;;;4.03;2.63;;;;;;;;;;5135065;27;20050;-81
2024/01/09 00:26:55;;;;;;;4.40;2.45;;;;;;;;;;5117945;27;20039;-81
2024/01/09 00:29:21;;;;;;;4.63;2.05;;;;;;;;;;5135083;27;20043;-81
2024/01/09 00:31:47;;;;;;;3.88;1.80;;;;;;;;;;5135001;27;20095;-81
2024/01/09 00:34:13;;;;;;;5.75;2.33;;;;;;;;;;5136154;27;20364;-81
2024/01/09 00:36:45;;;;;;;3.65;1.98;;;;;;;;;;5134952;27;20047;-82
2024/01/09 00:39:12;;;;;;;3.38;2.00;;;;;;;;;;5134938;27;20047;-81
2024/01/09 00:41:38;;;;;;;3.85;2.25;;;;;;;;;;5134630;27;20051;-81
2024/01/09 00:44:04;;;;;;;5.93;1.90;;;;;;;;;;5134707;27;20043;-81
2024/01/09 00:46:30;;;;;;;6.07;2.03;;;;;;;;;;5134563;27;20051;-81
2024/01/09 00:48:56;;;;;;;4.00;1.85;;;;;;;;;;5116985;27;20055;-81
2024/01/09 00:51:22;;;;;;;5.22;2.10;;;;;;;;;;5133868;27;20142;-81
2024/01/09 00:53:48;;;;;;;3.22;1.58;;;;;;;;;;5134692;27;20043;-81
2024/01/09 00:56:14;;;;;;;3.15;2.40;;;;;;;;;;5134512;27;20129;-81
2024/01/09 00:58:40;;;;;;;2.90;1.85;;;;;;;;;;5134067;27;20051;-81
2024/01/09 01:01:06;;;;;;;4.90;2.03;;;;;;;;;;5134594;27;20043;-81
2024/01/09 01:03:32;;;;;;;3.28;1.88;;;;;;;;;;5134288;27;20058;-81
2024/01/09 01:05:58;;;;;;;4.47;1.77;;;;;;;;;;5134581;27;20043;-81
2024/01/09 01:08:24;;;;;;;3.92;1.55;;;;;;;;;;5117187;27;20039;-81
2024/01/09 01:10:51;;;;;;;4.53;2.15;;;;;;;;;;5134415;27;20085;-81
2024/01/09 01:13:17;;;;;;;3.03;1.80;;;;;;;;;;5133936;27;20047;-81
2024/01/09 01:15:43;;;;;;;3.30;1.73;;;;;;;;;;5134119;27;20043;-82
2024/01/09 01:18:09;;;;;;;4.50;1.63;;;;;;;;;;5133142;27;20123;-81
2024/01/09 01:20:35;;;;;;;3.33;1.85;;;;;;;;;;5133971;27;20181;-81
2024/01/09 01:23:01;;;;;;;4.05;1.70;;;;;;;;;;5133979;27;20046;-81
2024/01/09 01:25:27;;;;;;;4.85;1.88;;;;;;;;;;5135084;27;20047;-81
2024/01/09 01:27:53;;;;;;;5.13;1.98;;;;;;;;;;5133250;27;20118;-81
2024/01/09 01:30:19;;;;;;;3.03;1.42;;;;;;;;;;5133995;27;20039;-81
2024/01/09 01:32:45;;;;;;;5.95;2.47;;;;;;;;;;5134231;27;20039;-81
2024/01/09 01:35:11;;;;;;;6.88;2.05;;;;;;;;;;5134977;27;20111;-81
2024/01/09 01:37:37;;;;;;;4.85;1.52;;;;;;;;;;5134838;27;20475;-81
2024/01/09 01:40:03;;;;;;;2.75;1.42;;;;;;;;;;5133855;27;20382;-81
2024/01/09 01:42:30;;;;;;;4.30;1.73;;;;;;;;;;5134886;27;20047;-81
2024/01/09 01:44:56;;;;;;;3.13;1.70;;;;;;;;;;5133677;27;20047;-81
2024/01/09 01:47:22;;;;;;;2.92;1.70;;;;;;;;;;5134367;27;20459;-81
2024/01/09 01:49:48;;;;;;;4.55;2.08;;;;;;;;;;5134779;27;20047;-81
2024/01/09 01:52:15;;;;;;;2.95;1.02;;;;;;;;;;5116711;28;20043;-81
2024/01/09 01:54:41;;;;;;;2.65;1.70;;;;;;;;;;5133684;27;20070;-81
2024/01/09 01:57:09;;;;;;;3.83;1.45;;;;;;;;;;5116166;28;20057;-81
2024/01/09 01:59:37;;;;;;;5.15;1.83;;;;;;;;;;5134727;28;20051;-81
2024/01/09 02:02:04;;;;;;;3.38;1.50;;;;;;;;;;5132953;27;20493;-81
2024/01/09 02:04:30;;;;;;;2.70;1.40;;;;;;;;;;5134463;28;20046;-81
2024/01/09 02:06:57;;;;;;;2.92;1.45;;;;;;;;;;5133569;28;20070;-81
2024/01/09 02:09:24;;;;;;;2.78;1.33;;;;;;;;;;5133562;28;20039;-81
2024/01/09 02:11:50;;;;;;;2.17;1.08;;;;;;;;;;5133333;28;20053;-81
2024/01/09 02:14:16;;;;;;;3.60;1.30;;;;;;;;;;5116290;28;20058;-81
2024/01/09 02:16:42;;;;;;;4.45;1.55;;;;;;;;;;5133243;28;20047;-81
2024/01/09 02:19:08;;;;;;;3.95;0.93;;;;;;;;;;5133702;28;20120;-81
2024/01/09 02:21:35;;;;;;;4.63;1.58;;;;;;;;;;5133306;28;20054;-81
2024/01/09 02:24:01;;;;;;;2.25;1.23;;;;;;;;;;5133213;28;20046;-81
2024/01/09 02:26:30;;;;;;;4.97;1.33;;;;;;;;;;5133232;28;20051;-81
2024/01/09 02:28:59;;;;;;;3.72;1.40;;;;;;;;;;5132687;28;20042;-81
2024/01/09 02:31:25;;;;;;;2.50;1.25;;;;;;;;;;5133335;28;20051;-81
2024/01/09 02:33:51;;;;;;;3.42;1.75;;;;;;;;;;5132949;28;20051;-81
2024/01/09 02:36:17;;;;;;;3.03;1.30;;;;;;;;;;5116276;28;20062;-81
2024/01/09 02:38:44;;;;;;;2.78;1.50;;;;;;;;;;5133136;28;20094;-81
2024/01/09 02:41:10;;;;;;;4.53;1.75;;;;;;;;;;5133227;28;20155;-81
2024/01/09 02:43:36;;;;;;;2.85;1.00;;;;;;;;;;5134387;28;20047;-81
2024/01/09 02:46:02;;;;;;;1.92;1.35;;;;;;;;;;5116876;28;20054;-81
2024/01/09 02:48:28;;;;;;;3.42;1.45;;;;;;;;;;5115609;28;20501;-81
2024/01/09 02:50:54;;;;;;;3.53;1.60;;;;;;;;;;5133163;28;20051;-81
2024/01/09 02:53:20;;;;;;;2.47;1.90;;;;;;;;;;5132905;28;20050;-81
2024/01/09 02:55:46;;;;;;;2.85;1.50;;;;;;;;;;5133089;28;20083;-81
2024/01/09 02:58:12;;;;;;;3.60;1.77;;;;;;;;;;5132553;28;20047;-81
2024/01/09 03:00:38;;;;;;;2.38;1.17;;;;;;;;;;5133988;28;20051;-81
2024/01/09 03:03:04;;;;;;;2.03;0.77;;;;;;;;;;5133084;28;20375;-81
2024/01/09 03:05:31;;;;;;;4.13;1.33;;;;;;;;;;5133981;28;20134;-81
2024/01/09 03:07:57;;;;;;;2.75;1.40;;;;;;;;;;5132682;28;20095;-81
2024/01/09 03:10:23;;;;;;;3.22;2.55;;;;;;;;;;5133899;28;20047;-81
2024/01/09 03:12:49;;;;;;;2.72;0.80;;;;;;;;;;5132976;27;20043;-81
2024/01/09 03:15:15;;;;;;;1.92;1.05;;;;;;;;;;5119690;27;20047;-81
2024/01/09 03:17:41;;;;;;;1.83;1.23;;;;;;;;;;5119410;27;20509;-81
2024/01/09 03:20:08;;;;;;;2.33;1.15;;;;;;;;;;5136568;27;20046;-81
2024/01/09 03:22:34;;;;;;;3.17;1.20;;;;;;;;;;5119374;27;20390;-81
2024/01/09 03:25:00;;;;;;;1.88;1.02;;;;;;;;;;5138300;27;20446;-81
2024/01/09 03:27:26;;;;;;;2.95;1.10;;;;;;;;;;5136633;27;20375;-81
2024/01/09 03:29:52;;;;;;;2.53;1.17;;;;;;;;;;5137387;27;20107;-81
2024/01/09 03:32:18;;;;;;;1.95;1.23;;;;;;;;;;5136324;27;20050;-81
2024/01/09 03:34:44;;;;;;;4.22;1.35;;;;;;;;;;5137116;27;20090;-81
2024/01/09 03:37:11;;;;;;;2.20;1.30;;;;;;;;;;5136169;27;20051;-81
2024/01/09 03:39:37;;;;;;;4.25;1.27;;;;;;;;;;5135876;27;20454;-81
2024/01/09 03:42:03;;;;;;;3.83;1.02;;;;;;;;;;5136240;27;20111;-81
2024/01/09 03:44:29;;;;;;;4.70;1.35;;;;;;;;;;5102021;27;20061;-81
2024/01/09 03:46:55;;;;;;;4.55;1.42;;;;;;;;;;5135467;27;20050;-80
2024/01/09 03:49:21;;;;;;;3.28;1.95;;;;;;;;;;5118882;27;20399;-81
2024/01/09 03:51:47;;;;;;;5.30;1.58;;;;;;;;;;5136997;27;20053;-81
2024/01/09 03:54:13;;;;;;;2.72;1.10;;;;;;;;;;5136820;27;20050;-80
2024/01/09 03:56:39;;;;;;;2.95;1.75;;;;;;;;;;5136916;27;20039;-81
2024/01/09 03:59:05;;;;;;;1.83;1.02;;;;;;;;;;5118316;27;20134;-81
2024/01/09 04:01:31;;;;;;;4.28;1.75;;;;;;;;;;5135904;27;20059;-81
2024/01/09 04:03:57;;;;;;;2.10;1.05;;;;;;;;;;5135745;27;20051;-81
2024/01/09 04:06:23;;;;;;;3.78;1.45;;;;;;;;;;5135477;27;20047;-81
2024/01/09 04:08:50;;;;;;;1.50;0.77;;;;;;;;;;5135406;27;20088;-81
2024/01/09 04:11:16;;;;;;;4.10;1.55;;;;;;;;;;5136288;27;20474;-81
2024/01/09 04:13:42;;;;;;;3.05;1.52;;;;;;;;;;5135509;27;20051;-81
2024/01/09 04:16:11;;;;;;;3.20;1.60;;;;;;;;;;5135500;27;20079;-81
2024/01/09 04:18:37;;;;;;;4.28;1.10;;;;;;;;;;5135570;27;20100;-81
2024/01/09 04:21:03;;;;;;;2.88;1.75;;;;;;;;;;5135338;27;20047;-81
2024/01/09 04:23:29;;;;;;;2.25;1.20;;;;;;;;;;5135244;27;20054;-81
2024/01/09 04:25:55;;;;;;;2.92;1.30;;;;;;;;;;5135948;27;20091;-81
2024/01/09 04:28:21;;;;;;;4.00;1.10;;;;;;;;;;5135662;27;20086;-81
2024/01/09 04:30:47;;;;;;;2.63;1.70;;;;;;;;;;5135104;27;20047;-81
2024/01/09 04:33:13;;;;;;;3.80;1.42;;;;;;;;;;5136050;27;20054;-81
2024/01/09 04:35:40;;;;;;;3.20;1.63;;;;;;;;;;5135009;27;20141;-81
2024/01/09 04:38:06;;;;;;;1.73;1.13;;;;;;;;;;5134800;27;20035;-81
2024/01/09 04:40:32;;;;;;;3.72;1.65;;;;;;;;;;5117848;27;20063;-81
2024/01/09 04:42:58;;;;;;;2.83;1.58;;;;;;;;;;5134885;27;20133;-81
2024/01/09 04:45:24;;;;;;;3.47;1.98;;;;;;;;;;5117792;27;20494;-81
2024/01/09 04:47:50;;;;;;;2.45;1.38;;;;;;;;;;5134338;27;20143;-81
2024/01/09 04:50:16;;;;;;;2.35;1.33;;;;;;;;;;5117796;27;20058;-81
2024/01/09 04:52:42;;;;;;;3.38;1.52;;;;;;;;;;5135422;27;20555;-81
2024/01/09 04:55:08;;;;;;;2.95;2.00;;;;;;;;;;5117581;27;20394;-81
2024/01/09 04:57:34;;;;;;;2.67;1.60;;;;;;;;;;5135330;27;20043;-81
2024/01/09 05:00:00;;;;;;;6.55;1.33;;;;;;;;;;5117444;27;20086;-81
2024/01/09 05:02:26;;;;;;;3.78;1.98;;;;;;;;;;5135331;27;20076;-82
2024/01/09 05:04:53;;;;;;;3.03;1.75;;;;;;;;;;5134424;27;20296;-81
2024/01/09 05:07:19;;;;;;;3.70;1.75;;;;;;;;;;5135421;27;20086;-81
2024/01/09 05:09:45;;;;;;;3.72;1.58;;;;;;;;;;5134098;27;20043;-81
2024/01/09 05:12:11;;;;;;;4.38;1.63;;;;;;;;;;5134229;27;20043;-81
2024/01/09 05:14:37;;;;;;;2.47;1.17;;;;;;;;;;5133740;27;20043;-81
2024/01/09 05:17:03;;;;;;;2.30;0.98;;;;;;;;;;5133512;27;20047;-81
2024/01/09 05:19:29;;;;;;;2.70;1.50;;;;;;;;;;5133681;27;20099;-81
2024/01/09 05:21:55;;;;;;;3.30;1.70;;;;;;;;;;5116993;27;20051;-81
2024/01/09 05:24:22;;;;;;;2.88;0.90;;;;;;;;;;5134100;27;20051;-81
2024/01/09 05:26:48;;;;;;;1.85;1.33;;;;;;;;;;5134185;27;20046;-81
2024/01/09 05:29:14;;;;;;;3.05;1.80;;;;;;;;;;5133214;27;20479;-81
2024/01/09 05:31:44;;;;;;;3.00;1.20;;;;;;;;;;5134007;27;20039;-80
2024/01/09 05:34:10;;;;;;;3.60;1.80;;;;;;;;;;5133973;27;20042;-81
2024/01/09 05:36:36;;;;;;;3.00;1.65;;;;;;;;;;5133170;27;20562;-81
2024/01/09 05:39:02;;;;;;;2.90;1.13;;;;;;;;;;5133908;27;20394;-80
2024/01/09 05:41:28;;;;;;;3.92;2.20;;;;;;;;;;5133485;27;20094;-81
2024/01/09 05:43:54;;;;;;;2.70;1.50;;;;;;;;;;5133900;27;20108;-81
2024/01/09 05:46:20;;;;;;;3.15;1.60;;;;;;;;;;5133759;27;20043;-81
2024/01/09 05:48:47;;;;;;;5.15;1.40;;;;;;;;;;5134637;27;20505;-81
2024/01/09 05:51:14;;;;;;;4.50;1.85;;;;;;;;;;5133745;27;20390;-80
2024/01/09 05:53:40;;;;;;;2.92;1.20;;;;;;;;;;5133957;27;20095;-81
2024/01/09 05:56:06;;;;;;;4.20;1.50;;;;;;;;;;5117329;27;20541;-81
2024/01/09 05:58:35;;;;;;;2.38;0.90;;;;;;;;;;5133148;27;20043;-81
2024/01/09 06:01:02;;;;;;;1.92;1.13;;;;;;;;;;5134664;27;20047;-81
2024/01/09 06:03:28;;;;;;;1.80;0.73;;;;;;;;;;5134700;28;20047;-81
2024/01/09 06:05:54;;;;;;;3.22;1.65;;;;;;;;;;5134726;28;20051;-80
2024/01/09 06:08:20;;;;;;;3.10;1.85;;;;;;;;;;5133284;28;20092;-81
2024/01/09 06:10:46;;;;;;;4.25;1.83;;;;;;;;;;5116316;28;20039;-81
2024/01/09 06:13:12;;;;;;;2.72;1.35;;;;;;;;;;5134483;28;20130;-80
2024/01/09 06:15:38;;;;;;;3.80;1.90;;;;;;;;;;5133311;28;20063;-80
2024/01/09 06:18:04;;;;;;;2.67;1.50;;;;;;;;;;5134401;28;20035;-81
2024/01/09 06:20:30;;;;;;;5.85;1.73;;;;;;;;;;5134426;28;20134;-80
2024/01/09 06:22:56;;;;;;;3.15;1.27;;;;;;;;;;5116185;28;20428;-80
2024/01/09 06:25:22;;;;;;;5.30;1.88;;;;;;;;;;5134891;28;20046;-80
2024/01/09 06:27:49;;;;;;;1.30;0.70;;;;;;;;;;5132788;28;20047;-80
2024/01/09 06:30:15;;;;;;;2.70;1.13;;;;;;;;;;5133370;28;20524;-80
2024/01/09 06:32:41;;;;;;;2.92;1.20;;;;;;;;;;5133152;28;20043;-80
2024/01/09 06:35:07;;;;;;;5.55;1.92;;;;;;;;;;5133014;28;20100;-81
2024/01/09 06:37:33;;;;;;;2.70;1.23;;;;;;;;;;5116953;28;20390;-81
2024/01/09 06:39:59;;;;;;;2.45;1.40;;;;;;;;;;5095635;28;20093;-80
2024/01/09 06:42:25;;;;;;;3.25;0.88;;;;;;;;;;5112870;28;20048;-81
2024/01/09 06:44:52;;;;;;;6.00;1.45;;;;;;;;;;5113693;28;20055;-81
2024/01/09 06:47:18;;;;;;;3.47;1.75;;;;;;;;;;5116141;27;20047;-81
2024/01/09 06:49:44;;;;;;;2.17;1.27;;;;;;;;;;5119741;27;20371;-81
2024/01/09 06:52:10;;;;;;;4.25;1.13;;;;;;;;;;5138871;27;20057;-82
2024/01/09 06:54:36;;;;;;;3.47;1.33;;;;;;;;;;5102779;27;20050;-81
2024/01/09 06:57:02;;;;;;;3.40;1.67;;;;;;;;;;5119434;27;20089;-81
2024/01/09 06:59:28;;;;;;;2.60;1.00;;;;;;;;;;5120453;27;20138;-81
2024/01/09 07:01:54;;;;;;;2.97;1.40;;;;;;;;;;5119833;27;20095;-81
2024/01/09 07:04:20;;;;;;;3.03;1.15;;;;;;;;;;5102443;27;20057;-81
2024/01/09 07:06:46;;;;;;;3.10;1.50;;;;;;;;;;5137844;27;20130;-81
2024/01/09 07:09:12;;;;;;;2.20;1.10;;;;;;;;;;5137721;27;20085;-81
2024/01/09 07:11:38;;;;;;;2.78;1.20;;;;;;;;;;5102968;27;20047;-81
2024/01/09 07:14:05;;;;;;;3.42;1.52;;;;;;;;;;5137574;27;20050;-81
2024/01/09 07:16:31;;;;;;;2.67;0.95;;;;;;;;;;5119970;27;20150;-81
2024/01/09 07:18:57;;;;;;;2.47;1.15;;;;;;;;;;5136435;27;20039;-81
2024/01/09 07:21:23;;;;;;;2.30;0.98;;;;;;;;;;5136753;27;20403;-81
2024/01/09 07:23:55;;;;;;;4.13;1.42;;;;;;;;;;5118671;27;20055;-81
2024/01/09 07:26:21;;;;;;;1.70;0.90;;;;;;;;;;5119484;27;20039;-81
2024/01/09 07:28:47;;;;;;;3.03;1.35;;;;;;;;;;5120478;27;20471;-81
2024/01/09 07:31:13;;;;;;;4.22;1.55;;;;;;;;;;5137894;27;20462;-81
2024/01/09 07:33:39;;;;;;;3.80;1.30;;;;;;;;;;5119076;27;20043;-81
2024/01/09 07:36:06;;;;;;;1.00;0.60;;;;;;;;;;5124020;27;20043;-81
2024/01/09 07:38:32;;;;;;;2.80;1.30;;;;;;;;;;5119058;27;20623;-81
2024/01/09 07:40:58;;;;;;;3.08;1.75;;;;;;;;;;5119532;27;20078;-82
2024/01/09 07:43:24;;;;;;;4.20;1.40;;;;;;;;;;5102066;27;20047;-81
2024/01/09 07:45:50;;;;;;;3.47;1.60;;;;;;;;;;5101824;27;20489;-82
2024/01/09 07:48:17;;;;;;;2.90;1.40;;;;;;;;;;5118651;27;20051;-82
2024/01/09 07:50:43;;;;;;;2.65;1.17;;;;;;;;;;5137037;27;20090;-82
2024/01/09 07:53:09;;;;;;;4.32;1.65;;;;;;;;;;5118854;27;20143;-82
2024/01/09 07:55:35;;;;;;;3.20;1.20;;;;;;;;;;5102085;27;20051;-82
2024/01/09 07:58:01;;;;;;;4.07;1.58;;;;;;;;;;5136209;27;20502;-82
2024/01/09 08:00:28;;;;;;;1.63;1.05;;;;;;;;;;5117734;27;20046;-81
2024/01/09 08:02:54;;;;;;;2.00;1.23;;;;;;;;;;5101759;27;20047;-81
2024/01/09 08:05:20;;;;;;;3.70;0.73;;;;;;;;;;5136802;27;20058;-81
2024/01/09 08:07:46;;;;;;;2.25;1.30;;;;;;;;;;5118401;27;20051;-81
2024/01/09 08:10:12;;;;;;;5.03;1.80;;;;;;;;;;5137364;27;20047;-81
2024/01/09 08:12:38;;;;;;;9.25;1.73;;;;;;;;;;5118436;27;20074;-81
2024/01/09 08:15:04;;;;;;;3.72;1.50;;;;;;;;;;5136570;27;20106;-82
2024/01/09 08:17:30;;;;;;;4.13;1.27;;;;;;;;;;5118329;27;20403;-81
2024/01/09 08:19:56;;;;;;;3.10;1.02;;;;;;;;;;5136441;27;20050;-81
2024/01/09 08:22:23;;;;;;;2.05;1.00;;;;;;;;;;5118133;27;20169;-81
2024/01/09 08:24:49;;;;;;;2.85;1.02;;;;;;;;;;5136467;27;20043;-81
2024/01/09 08:27:15;;;;;;;2.40;1.27;;;;;;;;;;5135068;27;20179;-81
2024/01/09 08:29:43;;;;;;;3.53;1.25;;;;;;;;;;5101192;27;20039;-81
2024/01/09 08:32:11;;;;;;;3.55;1.73;;;;;;;;;;5136066;27;20047;-81
2024/01/09 08:34:37;;;;;;;4.55;1.10;;;;;;;;;;5136139;27;20130;-80
2024/01/09 08:37:03;;;;;;;4.13;1.65;;;;;;;;;;5117918;27;20050;-81
2024/01/09 08:39:29;;;;;;;2.13;1.00;;;;;;;;;;5135873;27;20043;-81
2024/01/09 08:41:55;;;;;;;2.33;1.10;;;;;;;;;;5117690;27;20051;-81
2024/01/09 08:44:23;;;;;;;2.92;1.17;;;;;;;;;;5117753;27;20126;-81
2024/01/09 08:46:49;;;;;;;2.35;1.08;;;;;;;;;;5101080;27;20047;-81
2024/01/09 08:49:16;;;;;;;3.25;1.38;;;;;;;;;;5117968;27;20479;-81
2024/01/09 08:51:42;;;;;;;2.83;1.15;;;;;;;;;;5117782;27;20090;-82
2024/01/09 08:54:08;;;;;;;3.08;1.23;;;;;;;;;;5135361;27;20487;-81
2024/01/09 08:56:34;;;;;;;4.32;1.17;;;;;;;;;;5117346;27;20039;-81
2024/01/09 08:59:01;;;;;;;2.47;1.23;;;;;;;;;;5117191;27;20054;-81
2024/01/09 09:01:27;;;;;;;2.08;0.93;;;;;;;;;;5100681;27;20467;-81
2024/01/09 09:03:53;;;;;;;1.92;0.93;;;;;;;;;;5117373;27;20055;-80
2024/01/09 09:06:19;;;;;;;2.22;1.35;;;;;;;;;;5135457;27;20045;-80
2024/01/09 09:08:45;;;;;;;3.25;1.23;;;;;;;;;;5100268;27;20046;-82
2024/01/09 09:11:17;;;;;;;2.13;0.88;;;;;;;;;;5116996;27;20047;-81
2024/01/09 09:13:44;;;;;;;4.15;1.23;;;;;;;;;;5101409;27;20092;-81
2024/01/09 09:16:10;;;;;;;2.15;1.10;;;;;;;;;;5117811;27;20138;-81
2024/01/09 09:18:36;;;;;;;2.67;2.13;;;;;;;;;;5116886;27;20062;-81
2024/01/09 09:21:03;;;;;;;2.92;1.60;;;;;;;;;;5116910;27;20047;-81
2024/01/09 09:23:29;;;;;;;2.70;0.90;;;;;;;;;;5135179;27;20100;-81
2024/01/09 09:25:56;;;;;;;2.17;1.05;;;;;;;;;;5117010;27;20096;-81
2024/01/09 09:28:22;;;;;;;1.40;0.77;;;;;;;;;;5116090;27;20041;-80
2024/01/09 09:30:49;;;;;;;2.05;0.90;;;;;;;;;;5116983;27;20050;-81
2024/01/09 09:33:15;;;;;;;4.82;0.90;;;;;;;;;;5117024;27;20389;-81
2024/01/09 09:35:41;;;;;;;3.05;1.45;;;;;;;;;;5135042;27;20130;-81
2024/01/09 09:38:07;;;;;;;3.90;1.15;;;;;;;;;;5099942;27;20431;-81
2024/01/09 09:40:33;;;;;;;2.58;1.33;;;;;;;;;;5116572;27;20046;-81
2024/01/09 09:43:02;;;;;;;2.78;1.10;;;;;;;;;;5134965;27;20043;-81
2024/01/09 09:45:30;;;;;;;3.75;0.95;;;;;;;;;;5116479;27;20058;-81
2024/01/09 09:47:57;;;;;;;1.30;0.90;;;;;;;;;;5116360;27;20059;-81
2024/01/09 09:50:23;;;;;;;2.28;0.93;;;;;;;;;;5116871;27;20043;-81
2024/01/09 09:52:50;;;;;;;3.03;1.20;;;;;;;;;;5116773;28;20539;-81
2024/01/09 09:55:17;;;;;;;3.53;1.17;;;;;;;;;;5134818;27;20043;-81
2024/01/09 09:57:43;;;;;;;2.90;1.45;;;;;;;;;;5116239;27;20059;-81
2024/01/09 10:00:09;;;;;;;2.15;1.27;;;;;;;;;;5134654;27;20043;-81
2024/01/09 10:02:38;;;;;;;2.83;1.08;;;;;;;;;;5099682;28;20465;-81
2024/01/09 10:05:12;;;;;;;3.05;1.05;;;;;;;;;;5116499;28;20039;-81
2024/01/09 10:07:39;;;;;;;2.28;1.17;;;;;;;;;;5134858;28;20043;-80
2024/01/09 10:10:07;;;;;;;3.38;1.30;;;;;;;;;;5116462;28;20126;-81
2024/01/09 10:12:34;;;;;;;1.70;0.88;;;;;;;;;;5134632;28;20051;-81
2024/01/09 10:15:08;;;;;;;2.85;1.10;;;;;;;;;;5099253;28;20107;-81
2024/01/09 10:17:35;;;;;;;2.60;1.02;;;;;;;;;;5099417;28;20047;-81
2024/01/09 10:20:02;;;;;;;3.95;1.63;;;;;;;;;;5124479;27;20497;-81
2024/01/09 10:22:31;;;;;;;3.20;1.30;;;;;;;;;;5156014;27;20043;-81
2024/01/09 10:24:57;;;;;;;1.95;0.70;;;;;;;;;;5124037;27;20131;-81
2024/01/09 10:27:23;;;;;;;2.03;1.45;;;;;;;;;;5158606;27;20512;-81
2024/01/09 10:29:49;;;;;;;1.48;0.93;;;;;;;;;;5159793;27;20095;-80
2024/01/09 10:32:18;;;;;;;1.65;0.80;;;;;;;;;;5140818;27;20046;-80
2024/01/09 10:34:44;;;;;;;2.05;0.50;;;;;;;;;;5159231;27;20054;-80
2024/01/09 10:37:12;;;;;;;2.45;1.33;;;;;;;;;;5159187;27;20043;-81
2024/01/09 10:39:39;;;;;;;2.42;1.00;;;;;;;;;;5159166;27;20043;-80
2024/01/09 10:42:07;;;;;;;3.10;1.30;;;;;;;;;;5159115;27;20046;-80
2024/01/09 10:44:33;;;;;;;3.88;0.95;;;;;;;;;;5159043;27;20049;-81
2024/01/09 10:47:00;;;;;;;2.88;1.67;;;;;;;;;;5140415;27;20049;-81
2024/01/09 10:49:27;;;;;;;1.77;1.00;;;;;;;;;;5140332;27;20050;-80
2024/01/09 10:51:55;;;;;;;0.90;0.32;;;;;;;;;;5140727;27;20458;-81
2024/01/09 10:54:22;;;;;;;2.05;1.08;;;;;;;;;;5140586;27;20067;-80
2024/01/09 10:56:50;;;;;;;4.25;1.23;;;;;;;;;;5140243;27;20043;-80
2024/01/09 10:59:17;;;;;;;1.77;0.73;;;;;;;;;;5158322;27;20045;-81
2024/01/09 11:01:43;;;;;;;2.70;0.60;;;;;;;;;;5140287;27;20053;-81
2024/01/09 11:04:09;;;;;;;2.53;1.23;;;;;;;;;;5140256;27;20046;-80
2024/01/09 11:06:39;;;;;;;2.67;0.88;;;;;;;;;;5159146;27;20155;-80
2024/01/09 11:09:05;;;;;;;2.88;1.08;;;;;;;;;;5158528;27;20038;-80
2024/01/09 11:11:33;;;;;;;2.15;1.13;;;;;;;;;;5140041;27;20050;-80
2024/01/09 11:14:03;;;;;;;3.40;0.90;;;;;;;;;;5158483;27;20046;-80
2024/01/09 11:16:32;;;;;;;1.65;0.85;;;;;;;;;;5158623;27;20478;-81
2024/01/09 11:18:59;;;;;;;1.88;0.68;;;;;;;;;;5158507;27;20085;-81
2024/01/09 11:21:25;;;;;;;1.30;0.60;;;;;;;;;;5140078;27;20053;-83
2024/01/09 11:23:59;;;;;;;1.70;1.10;;;;;;;;;;5123052;27;20106;-81
2024/01/09 11:26:30;;;;;;;1.95;0.73;;;;;;;;;;5158992;27;20125;-81
2024/01/09 11:28:57;;;;;;;1.08;0.50;;;;;;;;;;5139506;27;20046;-81
2024/01/09 11:31:24;;;;;;;3.08;0.73;;;;;;;;;;5140134;27;20386;-81
2024/01/09 11:33:51;;;;;;;1.67;0.93;;;;;;;;;;5157083;27;20051;-81
2024/01/09 11:36:24;;;;;;;2.47;0.95;;;;;;;;;;5123556;27;20057;-81
2024/01/09 11:38:53;;;;;;;1.88;0.93;;;;;;;;;;5139484;27;20489;-81
2024/01/09 11:41:22;;;;;;;2.55;0.85;;;;;;;;;;5157956;27;20043;-81
2024/01/09 11:43:58;;;;;;;2.65;1.10;;;;;;;;;;5137456;27;20447;-80
2024/01/09 11:46:24;;;;;;;2.83;0.85;;;;;;;;;;5119131;27;20051;-81
2024/01/09 11:48:51;;;;;;;1.88;0.75;;;;;;;;;;5136960;27;20059;-81
2024/01/09 11:51:17;;;;;;;2.20;1.08;;;;;;;;;;5118971;27;20046;-80
2024/01/09 11:53:44;;;;;;;1.77;1.25;;;;;;;;;;5119192;27;20387;-81
2024/01/09 11:56:13;;;;;;;1.20;0.82;;;;;;;;;;5137037;27;20051;-81
2024/01/09 11:58:40;;;;;;;2.47;0.70;;;;;;;;;;5136765;27;20051;-80
2024/01/09 12:01:06;;;;;;;2.00;0.80;;;;;;;;;;5118411;27;20096;-80
2024/01/09 12:03:33;;;;;;;1.05;0.70;;;;;;;;;;5136818;27;20051;-81
2024/01/09 12:06:00;;;;;;;6.55;0.60;;;;;;;;;;5136672;27;20399;-80
2024/01/09 12:08:26;;;;;;;3.55;1.48;;;;;;;;;;5137039;27;20096;-80
2024/01/09 12:10:52;;;;;;;3.00;0.70;;;;;;;;;;5136980;27;20137;-80
2024/01/09 12:13:18;;;;;;;2.17;0.68;;;;;;;;;;5137703;27;20126;-81
2024/01/09 12:15:44;;;;;;;2.25;0.68;;;;;;;;;;5119300;27;20051;-81
2024/01/09 12:18:10;;;;;;;1.55;0.60;;;;;;;;;;5136845;27;20095;-81
2024/01/09 12:20:38;;;;;;;2.33;0.90;;;;;;;;;;5118462;27;20039;-80
2024/01/09 12:23:04;;;;;;;3.58;0.88;;;;;;;;;;5118460;27;20047;-81
2024/01/09 12:25:30;;;;;;;0.85;0.40;;;;;;;;;;5136629;27;20043;-82
2024/01/09 12:27:57;;;;;;;1.52;0.60;;;;;;;;;;5101057;27;20044;-80
2024/01/09 12:30:23;;;;;;;1.80;0.70;;;;;;;;;;5136909;27;20069;-80
2024/01/09 12:32:50;;;;;;;3.30;0.70;;;;;;;;;;5136352;27;20428;-80
2024/01/09 12:35:17;;;;;;;1.65;0.60;;;;;;;;;;5117905;27;20047;-80
2024/01/09 12:37:46;;;;;;;1.88;0.82;;;;;;;;;;5118107;27;20057;-81
2024/01/09 12:40:18;;;;;;;2.17;0.80;;;;;;;;;;5136028;27;20176;-81
2024/01/09 12:42:45;;;;;;;1.67;0.80;;;;;;;;;;5134899;27;20406;-80
2024/01/09 12:45:11;;;;;;;1.20;0.70;;;;;;;;;;5134204;27;20043;-81
2024/01/09 12:47:38;;;;;;;3.22;0.85;;;;;;;;;;5133484;27;20043;-81
2024/01/09 12:50:04;;;;;;;1.40;0.40;;;;;;;;;;5135461;27;20051;-81
2024/01/09 12:52:32;;;;;;;1.77;0.60;;;;;;;;;;5114482;27;20500;-81
2024/01/09 12:54:59;;;;;;;1.73;0.60;;;;;;;;;;5106019;28;20126;-81
2024/01/09 12:57:25;;;;;;;3.53;0.88;;;;;;;;;;5098277;27;20125;-81
2024/01/09 12:59:51;;;;;;;2.20;0.93;;;;;;;;;;5098694;27;20043;-80
2024/01/09 13:02:17;;;;;;;2.00;0.52;;;;;;;;;;5114133;27;20082;-81
2024/01/09 13:04:46;;;;;;;1.92;0.60;;;;;;;;;;5098382;27;20123;-81
2024/01/09 13:07:15;;;;;;;1.83;0.82;;;;;;;;;;5114979;27;20051;-81
2024/01/09 13:09:42;;;;;;;1.55;0.60;;;;;;;;;;5116477;27;20051;-81
2024/01/09 13:12:10;;;;;;;1.40;0.73;;;;;;;;;;5117314;27;20039;-81
2024/01/09 13:14:37;;;;;;;3.03;0.85;;;;;;;;;;5135543;27;20047;-81
2024/01/09 13:17:03;;;;;;;1.10;0.73;;;;;;;;;;5117109;27;20050;-81
2024/01/09 13:19:30;;;;;;;1.25;0.60;;;;;;;;;;5135607;27;20098;-80
2024/01/09 13:21:56;;;;;;;1.50;0.70;;;;;;;;;;5135160;27;20510;-79
2024/01/09 13:24:22;;;;;;;1.40;0.80;;;;;;;;;;5135321;27;20057;-80
2024/01/09 13:26:49;;;;;;;1.67;1.05;;;;;;;;;;5135243;27;20047;-79
2024/01/09 13:29:17;;;;;;;2.47;0.90;;;;;;;;;;5099548;27;20047;-79
2024/01/09 13:31:44;;;;;;;4.03;0.93;;;;;;;;;;5117935;27;20051;-79
2024/01/09 13:34:10;;;;;;;2.25;1.13;;;;;;;;;;5135164;27;20055;-78
2024/01/09 13:36:36;;;;;;;2.08;1.45;;;;;;;;;;5117211;27;20126;-78
2024/01/09 13:39:03;;;;;;;1.77;1.15;;;;;;;;;;5115050;27;20069;-79
2024/01/09 13:41:29;;;;;;;3.72;1.20;;;;;;;;;;5114073;27;20051;-79
2024/01/09 13:43:56;;;;;;;3.20;0.98;;;;;;;;;;5130999;27;20943;-80
2024/01/09 13:46:22;;;;;;;2.35;0.98;;;;;;;;;;5135063;27;20418;-79
2024/01/09 13:48:48;;;;;;;0.98;0.63;;;;;;;;;;5099407;27;20047;-79
2024/01/09 13:51:14;;;;;;;1.92;1.08;;;;;;;;;;5116806;27;20050;-79
2024/01/09 13:53:40;;;;;;;1.60;0.73;;;;;;;;;;5116765;28;20095;-79
2024/01/09 13:56:06;;;;;;;1.63;0.52;;;;;;;;;;5116935;28;20110;-79
2024/01/09 13:58:35;;;;;;;1.52;0.80;;;;;;;;;;5116170;27;20047;-79
2024/01/09 14:01:01;;;;;;;1.90;1.00;;;;;;;;;;5135429;27;20050;-79
2024/01/09 14:03:28;;;;;;;1.20;0.85;;;;;;;;;;5134458;27;20619;-79
2024/01/09 14:05:54;;;;;;;1.85;0.77;;;;;;;;;;5134739;28;20490;-78
2024/01/09 14:08:21;;;;;;;1.58;0.68;;;;;;;;;;5134616;28;20049;-79
2024/01/09 14:10:47;;;;;;;2.28;0.82;;;;;;;;;;5116634;28;20139;-79
2024/01/09 14:13:13;;;;;;;2.13;0.90;;;;;;;;;;5134276;28;20490;-79
2024/01/09 14:15:39;;;;;;;5.55;0.80;;;;;;;;;;5134642;28;20050;-79
2024/01/09 14:18:06;;;;;;;1.63;0.32;;;;;;;;;;5134586;28;20050;-79
2024/01/09 14:20:32;;;;;;;1.05;0.63;;;;;;;;;;5113192;28;20043;-79
2024/01/09 14:23:01;;;;;;;1.42;0.88;;;;;;;;;;5115782;28;20039;-79
2024/01/09 14:25:27;;;;;;;2.70;0.85;;;;;;;;;;5131832;28;20043;-79
2024/01/09 14:27:53;;;;;;;1.95;0.80;;;;;;;;;;5098252;28;20039;-79
2024/01/09 14:30:21;;;;;;;1.73;0.60;;;;;;;;;;5133704;28;20053;-79
2024/01/09 14:32:47;;;;;;;1.10;0.60;;;;;;;;;;5133786;28;20078;-79
2024/01/09 14:35:13;;;;;;;1.20;0.73;;;;;;;;;;5133799;28;20050;-79
2024/01/09 14:37:39;;;;;;;1.67;0.70;;;;;;;;;;5133608;28;20075;-79